Time;durP1;ratioP1;P1;durP2;ratioP2;P2;SDS_P1;SDS_P2;PMS_P1;PMS_P2;Temp;Humidity;BMP_temperature;BMP_pressure;BME280_temperature;BME280_humidity;BME280_pressure;Samples;Min_cycle;Max_cycle;Signal;HPM_P1;HPM_P2
2023/04/10 00:02:17;;;;;;;1.83;1.40;;;;;;;22.21;30.81;103024.63;20913054;28;20096;-73
2023/04/10 00:12:18;;;;;;;3.65;1.30;;;;;;;22.01;30.69;103005.41;20924018;28;20372;-73
2023/04/10 00:22:22;;;;;;;3.83;1.83;;;;;;;22.15;30.98;103050.69;20927568;28;20045;-73
2023/04/10 00:32:24;;;;;;;2.70;1.60;;;;;;;22.07;31.06;103055.47;20969945;28;20106;-68
2023/04/10 00:42:28;;;;;;;2.05;1.50;;;;;;;22.18;31.11;103084.53;20924798;28;20102;-67
2023/04/10 00:52:31;;;;;;;4.47;1.58;;;;;;;21.97;31.53;103062.72;20916455;28;20191;-68
2023/04/10 01:02:32;;;;;;;13.15;2.45;;;;;;;22.06;31.74;103094.75;20916434;28;20136;-69
2023/04/10 01:12:52;;;;;;;4.82;1.70;;;;;;;22.11;31.59;103128.34;20878127;28;20498;-68
2023/04/10 01:23:14;;;;;;;4.22;1.55;;;;;;;22.11;31.34;103139.50;20916758;28;20377;-67
2023/04/10 01:33:20;;;;;;;3.00;1.50;;;;;;;22.13;31.42;103144.88;20949613;28;20186;-67
2023/04/10 01:43:27;;;;;;;3.28;1.42;;;;;;;22.10;31.45;103137.81;20916318;28;20472;-66
2023/04/10 01:53:30;;;;;;;3.42;1.75;;;;;;;22.16;31.87;103147.19;20902110;28;20037;-69
2023/04/10 02:03:32;;;;;;;4.97;1.38;;;;;;;22.25;31.40;103140.19;20906599;28;20045;-67
2023/04/10 02:13:36;;;;;;;3.72;1.40;;;;;;;22.13;31.92;103115.06;20896502;28;20110;-68
2023/04/10 02:23:40;;;;;;;2.28;1.50;;;;;;;22.24;32.62;103142.13;20966525;28;20036;-67
2023/04/10 02:33:44;;;;;;;4.32;1.55;;;;;;;22.20;31.83;103138.13;20993625;28;20040;-66
2023/04/10 02:43:45;;;;;;;4.43;1.63;;;;;;;22.19;32.50;103142.00;20928450;28;20476;-69
2023/04/10 02:53:47;;;;;;;1.75;1.48;;;;;;;22.17;31.76;103144.16;20910941;28;20037;-67
2023/04/10 03:03:49;;;;;;;4.45;1.52;;;;;;;22.12;32.00;103132.88;20910407;28;20044;-67
2023/04/10 03:13:50;;;;;;;5.82;2.05;;;;;;;22.25;32.25;103157.78;20910316;28;20040;-67
2023/04/10 03:23:51;;;;;;;3.38;1.55;;;;;;;22.08;32.51;103129.69;20910091;28;20037;-69
2023/04/10 03:33:53;;;;;;;3.40;1.52;;;;;;;22.12;32.53;103141.22;20909121;28;20041;-67
2023/04/10 03:43:54;;;;;;;1.30;1.20;;;;;;;22.16;31.53;103153.63;20919182;28;20049;-67
2023/04/10 03:53:58;;;;;;;2.78;1.67;;;;;;;22.05;31.77;103132.94;20920232;28;20033;-69
2023/04/10 04:03:59;;;;;;;2.00;1.20;;;;;;;22.00;31.54;103115.22;20906451;28;20041;-68
2023/04/10 04:14:03;;;;;;;2.03;1.48;;;;;;;21.94;32.08;103111.41;20917333;28;20037;-65
2023/04/10 04:24:05;;;;;;;1.52;1.23;;;;;;;22.05;31.62;103129.31;20921620;28;20102;-68
2023/04/10 04:34:12;;;;;;;2.55;1.30;;;;;;;22.02;32.02;103127.81;20903459;28;20550;-67
2023/04/10 04:44:17;;;;;;;1.98;1.20;;;;;;;21.99;31.66;103169.25;20904893;28;20095;-67
2023/04/10 04:54:21;;;;;;;4.00;1.15;;;;;;;21.97;31.58;103127.69;20925047;28;20064;-68
2023/04/10 05:04:23;;;;;;;1.73;1.25;;;;;;;21.97;31.75;103132.41;20926604;28;20045;-67
2023/04/10 05:14:25;;;;;;;3.05;1.40;;;;;;;21.91;31.71;103116.63;20935204;28;20038;-67
2023/04/10 05:24:26;;;;;;;2.65;1.38;;;;;;;21.87;31.74;103123.78;20925427;28;20049;-68
2023/04/10 05:34:27;;;;;;;1.92;1.73;;;;;;;21.85;31.89;103123.97;20929500;28;20025;-68
2023/04/10 05:44:30;;;;;;;2.25;1.02;;;;;;;21.93;31.79;103125.59;20899540;28;20041;-68
2023/04/10 05:54:31;;;;;;;2.70;1.67;;;;;;;21.75;32.32;103110.59;20914625;28;20554;-67
2023/04/10 06:04:32;;;;;;;1.55;1.33;;;;;;;21.87;31.95;103119.03;20910255;28;20508;-67
2023/04/10 06:14:34;;;;;;;1.63;1.17;;;;;;;21.83;32.11;103113.09;20909600;28;20472;-68
2023/04/10 06:24:35;;;;;;;1.45;1.35;;;;;;;21.86;32.28;103114.56;20910499;28;20045;-68
2023/04/10 06:34:37;;;;;;;2.25;1.38;;;;;;;21.85;32.05;103112.00;20956294;28;20044;-68
2023/04/10 06:44:38;;;;;;;1.35;1.05;;;;;;;21.76;32.36;103087.25;20941385;28;20041;-68
2023/04/10 06:54:39;;;;;;;2.95;1.60;;;;;;;21.82;32.12;103103.03;20912086;28;20192;-69
2023/04/10 07:04:41;;;;;;;2.25;1.48;;;;;;;21.69;32.29;103080.91;20896875;28;20396;-67
2023/04/10 07:14:44;;;;;;;1.65;1.23;;;;;;;21.76;32.45;103103.09;20909533;28;20404;-66
2023/04/10 07:24:45;;;;;;;1.70;1.35;;;;;;;21.77;32.43;103108.47;20946799;28;20403;-67
2023/04/10 07:34:47;;;;;;;1.60;1.17;;;;;;;21.73;32.54;103109.16;20950096;28;20045;-67
2023/04/10 07:44:48;;;;;;;1.30;1.17;;;;;;;21.72;32.57;103113.88;20919838;28;20045;-66
2023/04/10 07:54:50;;;;;;;2.33;1.42;;;;;;;21.63;32.63;103098.56;20904098;28;20033;-67
2023/04/10 08:04:53;;;;;;;1.58;1.25;;;;;;;21.70;32.56;103109.63;20908068;28;20041;-66
2023/04/10 08:14:59;;;;;;;1.70;1.30;;;;;;;21.72;32.84;103118.63;20937745;28;20044;-68
2023/04/10 08:25:03;;;;;;;1.88;1.48;;;;;;;21.67;32.67;103124.88;20991246;28;20107;-67
2023/04/10 08:35:05;;;;;;;1.20;0.90;;;;;;;21.68;32.54;103123.78;21004069;28;20422;-67
2023/04/10 08:45:07;;;;;;;1.92;1.30;;;;;;;21.67;32.67;103126.78;21003027;28;20098;-67
2023/04/10 08:55:11;;;;;;;1.38;1.10;;;;;;;21.64;32.80;103130.91;20930649;28;20099;-66
2023/04/10 09:05:13;;;;;;;1.42;1.30;;;;;;;21.58;32.36;103120.72;20905869;28;20057;-67
2023/04/10 09:15:15;;;;;;;1.33;1.20;;;;;;;21.44;32.90;103108.00;20867914;28;20107;-67
2023/04/10 09:25:33;;;;;;;2.33;1.20;;;;;;;21.53;32.88;103128.88;20887735;28;20082;-67
2023/04/10 09:35:38;;;;;;;1.83;1.15;;;;;;;21.47;32.76;103121.47;20939273;28;20430;-67
2023/04/10 09:45:47;;;;;;;2.42;1.33;;;;;;;21.38;33.33;103123.72;20933271;28;20490;-67
2023/04/10 09:55:49;;;;;;;1.58;1.02;;;;;;;21.37;32.84;103127.59;20906963;28;20048;-67
2023/04/10 10:05:51;;;;;;;5.85;2.03;;;;;;;21.48;33.13;103157.44;20910511;28;20041;-67
2023/04/10 10:16:14;;;;;;;2.80;1.60;;;;;;;21.45;33.36;103162.66;20891675;28;20041;-67
2023/04/10 10:26:18;;;;;;;3.25;1.10;;;;;;;21.27;32.98;103139.22;20907595;28;20387;-67
2023/04/10 10:36:21;;;;;;;1.88;1.27;;;;;;;21.45;33.22;103184.94;20908473;28;20037;-67
2023/04/10 10:46:39;;;;;;;1.80;1.52;;;;;;;21.28;33.43;103160.41;20905061;28;20037;-67
2023/04/10 10:56:41;;;;;;;3.60;1.57;;;;;;;21.40;33.46;103198.69;20866571;28;20094;-67
2023/04/10 11:06:51;;;;;;;6.75;1.50;;;;;;;21.12;33.72;103179.63;20905760;28;20376;-67
2023/04/10 11:16:52;;;;;;;7.35;1.50;;;;;;;21.29;33.60;103211.41;20905060;28;20088;-67
2023/04/10 11:26:55;;;;;;;9.38;1.80;;;;;;;21.14;34.21;103211.75;20907711;28;20049;-67
2023/04/10 11:37:01;;;;;;;7.45;1.80;;;;;;;21.11;34.29;103223.34;20930748;28;20037;-68
2023/04/10 11:47:03;;;;;;;3.35;1.70;;;;;;;21.13;34.20;103226.75;20912527;28;20049;-67
2023/04/10 11:57:09;;;;;;;8.18;1.88;;;;;;;21.09;34.42;103231.06;20921578;28;20111;-69
2023/04/10 12:07:10;;;;;;;3.80;1.50;;;;;;;21.00;34.42;103219.38;20920019;28;20442;-69
2023/04/10 12:17:15;;;;;;;6.85;1.50;;;;;;;21.04;34.06;103236.47;20922817;28;20037;-69
2023/04/10 12:27:27;;;;;;;5.90;1.80;;;;;;;20.98;34.26;103232.66;20921446;28;20045;-69
2023/04/10 12:37:47;;;;;;;2.95;1.83;;;;;;;20.94;34.11;103231.41;20921616;28;20122;-69
2023/04/10 12:47:52;;;;;;;3.88;2.17;;;;;;;20.92;34.10;103224.34;20920602;28;20038;-68
2023/04/10 12:57:56;;;;;;;5.70;2.05;;;;;;;20.74;34.09;103198.16;20935283;28;20462;-69
2023/04/10 13:07:57;;;;;;;7.13;2.22;;;;;;;20.64;33.51;103181.13;20919188;28;20049;-68
2023/04/10 13:18:01;;;;;;;3.00;2.00;;;;;;;20.87;33.48;103230.59;20917358;28;20045;-69
2023/04/10 13:28:10;;;;;;;5.43;1.75;;;;;;;20.80;33.59;103211.19;20917948;28;20095;-69
2023/04/10 13:38:11;;;;;;;;;;;;;;;20.84;33.64;103216.28;20915393;28;20199;-69
2023/04/10 13:48:14;;;;;;;3.65;2.20;;;;;;;20.88;33.62;103212.81;20915953;28;19925;-70
2023/04/10 13:58:16;;;;;;;3.95;1.73;;;;;;;20.72;33.41;103188.34;20915208;28;20049;-70
2023/04/10 14:08:18;;;;;;;2.72;1.80;;;;;;;20.74;33.40;103195.38;20837539;28;20050;-70
2023/04/10 14:18:28;;;;;;;4.57;1.83;;;;;;;20.76;33.22;103182.09;20834426;28;20053;-69
2023/04/10 14:28:30;;;;;;;2.75;1.88;;;;;;;20.76;33.54;103187.66;20830289;28;20550;-70
2023/04/10 14:38:31;;;;;;;3.55;1.55;;;;;;;20.78;33.24;103191.06;20830718;28;20041;-69
2023/04/10 14:48:33;;;;;;;2.67;1.88;;;;;;;20.81;33.48;103185.06;20829287;28;20041;-69
2023/04/10 14:58:34;;;;;;;3.05;1.80;;;;;;;20.68;32.85;103162.03;20829054;28;20075;-70
2023/04/10 15:08:36;;;;;;;2.00;1.80;;;;;;;20.56;33.09;103136.88;20827673;28;20045;-70
2023/04/10 15:18:37;;;;;;;2.85;1.60;;;;;;;20.75;32.77;103162.81;20828260;28;20037;-70
2023/04/10 15:28:39;;;;;;;3.28;1.60;;;;;;;20.71;32.44;103148.53;20827148;28;20042;-70
2023/04/10 15:38:40;;;;;;;2.53;1.77;;;;;;;20.75;32.52;103152.53;20817372;28;20107;-68
2023/04/10 15:48:41;;;;;;;2.95;1.77;;;;;;;20.75;32.39;103123.88;20842935;28;20492;-68
2023/04/10 15:58:43;;;;;;;2.75;1.85;;;;;;;20.65;32.20;103099.34;20842562;28;20037;-69
2023/04/10 16:09:02;;;;;;;2.85;1.90;;;;;;;20.71;32.09;103094.81;20841799;28;20389;-70
2023/04/10 16:19:04;;;;;;;3.05;1.95;;;;;;;20.69;32.05;103067.22;20840617;28;20111;-69
2023/04/10 16:29:05;;;;;;;1.90;1.70;;;;;;;20.63;31.88;103042.25;20840459;28;20392;-69
2023/04/10 16:39:07;;;;;;;3.00;1.75;;;;;;;20.72;31.95;103027.81;20839199;28;20041;-70
2023/04/10 16:49:08;;;;;;;3.60;2.08;;;;;;;20.75;31.54;103015.38;20837908;28;20045;-69
2023/04/10 16:59:10;;;;;;;4.97;2.30;;;;;;;20.69;31.70;102992.09;20838562;28;20030;-69
2023/04/10 17:09:11;;;;;;;2.92;1.90;;;;;;;20.78;31.34;102984.31;20836352;28;20041;-70
2023/04/10 17:19:14;;;;;;;2.85;2.40;;;;;;;20.66;31.49;102952.75;20836468;28;20079;-69
2023/04/10 17:29:15;;;;;;;3.10;2.15;;;;;;;20.76;31.58;102942.81;20834828;28;20341;-69
2023/04/10 17:39:17;;;;;;;2.58;2.33;;;;;;;20.79;31.39;102936.75;20834315;28;20045;-70
2023/04/10 17:49:19;;;;;;;3.20;2.22;;;;;;;20.80;30.96;102904.22;20834224;28;20464;-68
2023/04/10 17:59:20;;;;;;;3.28;2.35;;;;;;;20.80;31.38;102888.41;20831941;28;20042;-69
2023/04/10 18:09:22;;;;;;;2.35;2.15;;;;;;;20.73;30.84;102854.22;20831948;28;20115;-70
2023/04/10 18:19:23;;;;;;;3.88;2.08;;;;;;;20.83;31.53;102866.75;20831273;28;20396;-69
2023/04/10 18:29:25;;;;;;;2.97;2.22;;;;;;;20.88;31.28;102833.50;20834016;28;20087;-71
2023/04/10 18:39:26;;;;;;;4.15;2.20;;;;;;;20.83;31.34;102813.88;20891576;28;20033;-69
2023/04/10 18:49:28;;;;;;;2.67;2.05;;;;;;;20.74;31.02;102769.69;20910832;28;20106;-70
2023/04/10 18:59:30;;;;;;;4.38;2.95;;;;;;;20.82;30.63;102782.41;20910100;28;20044;-70
2023/04/10 19:09:31;;;;;;;3.15;2.08;;;;;;;20.85;30.15;102761.59;20909619;28;20052;-68
2023/04/10 19:19:33;;;;;;;4.72;2.90;;;;;;;20.76;30.64;102730.50;20909212;28;20053;-70
2023/04/10 19:29:34;;;;;;;2.75;2.40;;;;;;;20.93;30.34;102728.72;20909905;28;20484;-75
2023/04/10 19:39:35;;;;;;;3.45;2.50;;;;;;;21.02;30.61;102712.53;20910528;28;20403;-73
2023/04/10 19:49:37;;;;;;;5.10;2.42;;;;;;;20.95;30.78;102695.13;20908430;28;20037;-74
2023/04/10 19:59:38;;;;;;;4.13;2.38;;;;;;;21.00;31.12;102692.47;20905603;28;20037;-72
2023/04/10 20:09:39;;;;;;;2.78;2.50;;;;;;;20.95;30.87;102681.19;20896386;28;20045;-73
2023/04/10 20:19:41;;;;;;;4.22;2.50;;;;;;;21.00;30.87;102670.19;20902058;28;20610;-74
2023/04/10 20:29:42;;;;;;;2.20;2.00;;;;;;;21.00;29.97;102665.47;20934142;28;20044;-70
2023/04/10 20:39:46;;;;;;;3.20;2.55;;;;;;;20.98;30.26;102650.09;20920102;28;20103;-70
2023/04/10 20:49:48;;;;;;;6.10;2.45;;;;;;;21.07;30.38;102643.06;20914122;28;20111;-70
2023/04/10 20:59:49;;;;;;;3.83;2.38;;;;;;;20.98;30.93;102642.63;20962156;28;20098;-69
2023/04/10 21:09:50;;;;;;;3.33;2.50;;;;;;;20.94;31.32;102616.34;20964505;28;20029;-70
2023/04/10 21:19:52;;;;;;;4.18;3.03;;;;;;;21.04;30.79;102626.88;20948605;28;20051;-70
2023/04/10 21:29:53;;;;;;;7.95;2.70;;;;;;;21.00;30.37;102620.94;20941058;28;20044;-70
2023/04/10 21:39:54;;;;;;;4.47;2.85;;;;;;;21.05;30.09;102623.84;20892782;28;20099;-71
2023/04/10 21:49:56;;;;;;;5.60;2.60;;;;;;;20.90;30.02;102597.59;20896647;28;20049;-71
2023/04/10 22:00:00;;;;;;;10.23;3.05;;;;;;;21.07;30.39;102631.94;20912388;28;20412;-69
2023/04/10 22:10:01;;;;;;;19.48;3.58;;;;;;;21.17;30.37;102620.22;20905745;28;20044;-71
2023/04/10 22:20:06;;;;;;;33.38;4.88;;;;;;;21.20;30.53;102626.13;20889608;28;20037;-67
2023/04/10 22:30:08;;;;;;;15.90;3.47;;;;;;;21.01;29.72;102582.81;20883450;28;20106;-68
2023/04/10 22:40:10;;;;;;;9.18;2.75;;;;;;;21.12;29.04;102618.19;20914347;28;20037;-67
2023/04/10 22:50:11;;;;;;;7.50;2.85;;;;;;;20.99;29.15;102602.56;20909839;28;20549;-66
2023/04/10 23:00:13;;;;;;;4.78;2.45;;;;;;;21.06;29.19;102608.00;20963568;28;20456;-67
2023/04/10 23:10:14;;;;;;;9.80;3.28;;;;;;;21.06;29.03;102614.41;20909517;28;20557;-67
2023/04/10 23:20:16;;;;;;;7.53;2.90;;;;;;;20.85;29.17;102583.53;20907195;28;20395;-67
2023/04/10 23:30:17;;;;;;;9.63;3.90;;;;;;;21.01;29.22;102610.66;20909270;28;20102;-66
2023/04/10 23:40:20;;;;;;;5.28;2.80;;;;;;;21.04;29.12;102610.19;20946519;28;20052;-67
2023/04/10 23:50:21;;;;;;;3.45;2.45;;;;;;;21.00;29.55;102608.97;20990629;28;20036;-66
